Time;durP1;ratioP1;P1;durP2;ratioP2;P2;SDS_P1;SDS_P2;PMS_P1;PMS_P2;Temp;Humidity;BMP_temperature;BMP_pressure;BME280_temperature;BME280_humidity;BME280_pressure;Samples;Min_cycle;Max_cycle;Signal;HPM_P1;HPM_P2
2023/12/29 00:01:22;;;;;;;9.73;5.57;;;;;10.30;98462.00;;;;5034983;28;20038;-64
2023/12/29 00:03:49;;;;;;;4.97;3.28;;;;;10.40;98461.00;;;;5034434;28;20442;-64
2023/12/29 00:06:16;;;;;;;4.45;3.40;;;;;10.40;98459.00;;;;5034919;28;20103;-60
2023/12/29 00:08:42;;;;;;;5.85;3.28;;;;;10.40;98460.00;;;;5034943;28;20045;-64
2023/12/29 00:11:19;;;;;;;5.15;4.13;;;;;10.40;98448.00;;;;5035031;28;20050;-64
2023/12/29 00:13:46;;;;;;;5.57;3.67;;;;;10.30;98438.00;;;;5034258;28;20120;-62
2023/12/29 00:16:14;;;;;;;7.80;4.13;;;;;10.40;98452.00;;;;5033392;28;20506;-62
2023/12/29 00:18:41;;;;;;;6.88;3.85;;;;;10.40;98451.00;;;;5033216;28;20052;-62
2023/12/29 00:21:08;;;;;;;11.93;7.43;;;;;10.30;98454.00;;;;5034352;28;20048;-61
2023/12/29 00:23:34;;;;;;;12.65;7.10;;;;;10.30;98446.00;;;;5034296;28;20057;-65
2023/12/29 00:26:01;;;;;;;6.68;3.47;;;;;10.30;98445.00;;;;5034791;28;20044;-64
2023/12/29 00:28:28;;;;;;;5.32;3.72;;;;;10.40;98437.00;;;;5034501;28;20041;-65
2023/12/29 00:30:55;;;;;;;6.13;3.35;;;;;10.40;98434.00;;;;5033481;28;20052;-64
2023/12/29 00:33:29;;;;;;;;;;;;;10.40;98452.00;;;;5034658;28;20069;-64
2023/12/29 00:35:57;;;;;;;6.13;3.47;;;;;10.40;98444.00;;;;5035473;28;19921;-64
2023/12/29 00:38:28;;;;;;;5.90;4.43;;;;;10.40;98448.00;;;;5033943;28;20045;-64
2023/12/29 00:40:55;;;;;;;8.55;5.45;;;;;10.40;98443.00;;;;5034874;28;20049;-63
2023/12/29 00:43:22;;;;;;;3.47;3.17;;;;;10.40;98453.00;;;;5033735;28;20514;-62
2023/12/29 00:45:49;;;;;;;5.47;3.33;;;;;10.40;98457.00;;;;5035310;28;20404;-65
2023/12/29 00:48:16;;;;;;;8.68;4.28;;;;;10.40;98441.00;;;;5035096;28;20041;-63
2023/12/29 00:50:42;;;;;;;6.22;4.68;;;;;10.40;98433.00;;;;5040509;28;20053;-63
2023/12/29 00:53:09;;;;;;;7.93;5.43;;;;;10.50;98431.00;;;;5041431;28;20392;-64
2023/12/29 00:55:36;;;;;;;3.88;3.47;;;;;10.50;98430.00;;;;5040825;28;20076;-63
2023/12/29 00:58:03;;;;;;;4.40;3.33;;;;;10.50;98431.00;;;;5042972;28;20103;-63
2023/12/29 01:00:30;;;;;;;6.13;3.53;;;;;10.50;98436.00;;;;5038709;28;20471;-63
2023/12/29 01:02:56;;;;;;;6.10;4.32;;;;;10.50;98439.00;;;;5034251;28;20064;-63
2023/12/29 01:05:24;;;;;;;5.13;3.70;;;;;10.50;98439.00;;;;5033054;28;20048;-64
2023/12/29 01:07:50;;;;;;;4.95;3.50;;;;;10.40;98438.00;;;;5033947;28;20045;-63
2023/12/29 01:10:17;;;;;;;6.60;4.35;;;;;10.50;98434.00;;;;5034797;28;20045;-64
2023/12/29 01:12:43;;;;;;;7.82;4.32;;;;;10.50;98433.00;;;;5036474;28;20045;-64
2023/12/29 01:15:10;;;;;;;4.57;3.80;;;;;10.50;98420.00;;;;5033212;28;20054;-64
2023/12/29 01:17:37;;;;;;;6.10;4.57;;;;;10.40;98422.00;;;;5018507;28;20045;-64
2023/12/29 01:20:04;;;;;;;7.13;4.45;;;;;10.40;98435.00;;;;5036450;28;20514;-64
2023/12/29 01:22:31;;;;;;;7.38;4.82;;;;;10.30;98424.00;;;;5035784;28;20049;-63
2023/12/29 01:25:01;;;;;;;9.27;5.43;;;;;10.40;98411.00;;;;5034321;28;20053;-62
2023/12/29 01:27:29;;;;;;;7.40;4.50;;;;;10.30;98409.00;;;;5034654;28;20049;-61
2023/12/29 01:29:56;;;;;;;6.47;4.15;;;;;10.30;98410.00;;;;5035977;28;20124;-61
2023/12/29 01:32:22;;;;;;;5.15;3.92;;;;;10.30;98408.00;;;;5034279;28;20497;-60
2023/12/29 01:34:49;;;;;;;7.07;4.43;;;;;10.20;98401.00;;;;5035204;28;20104;-62
2023/12/29 01:37:17;;;;;;;5.78;3.85;;;;;10.20;98411.00;;;;5035496;28;20046;-63
2023/12/29 01:39:44;;;;;;;5.07;4.15;;;;;10.20;98409.00;;;;5032037;28;20077;-62
2023/12/29 01:42:11;;;;;;;5.32;3.90;;;;;10.20;98405.00;;;;5032904;28;20073;-62
2023/12/29 01:44:38;;;;;;;8.07;4.13;;;;;10.20;98397.00;;;;5032382;28;20080;-62
2023/12/29 01:47:13;;;;;;;5.10;3.88;;;;;10.30;98394.00;;;;5031532;28;20514;-62
2023/12/29 01:49:40;;;;;;;5.38;3.20;;;;;10.20;98403.00;;;;5031751;28;20041;-63
2023/12/29 01:52:07;;;;;;;3.30;3.00;;;;;10.20;98400.00;;;;5034142;28;20099;-61
2023/12/29 01:54:37;;;;;;;7.93;4.72;;;;;10.20;98397.00;;;;5031372;28;20053;-62
2023/12/29 01:57:07;;;;;;;3.67;2.92;;;;;10.20;98407.00;;;;5031429;28;20053;-64
2023/12/29 01:59:35;;;;;;;5.15;3.60;;;;;10.20;98394.00;;;;5031542;28;20038;-64
2023/12/29 02:02:02;;;;;;;4.10;3.28;;;;;10.20;98409.00;;;;5015186;28;20095;-63
2023/12/29 02:04:30;;;;;;;6.72;4.32;;;;;10.20;98415.00;;;;5032167;28;20125;-63
2023/12/29 02:06:57;;;;;;;4.70;3.13;;;;;10.20;98401.00;;;;5030468;28;20045;-64
2023/12/29 02:09:25;;;;;;;4.97;2.90;;;;;10.20;98398.00;;;;5032270;28;20037;-64
2023/12/29 02:11:51;;;;;;;4.35;2.80;;;;;10.20;98402.00;;;;5031204;28;20491;-65
2023/12/29 02:14:20;;;;;;;5.25;2.83;;;;;10.20;98401.00;;;;5031027;28;20049;-63
2023/12/29 02:17:01;;;;;;;3.50;2.72;;;;;10.20;98403.00;;;;5031110;28;20095;-64
2023/12/29 02:19:43;;;;;;;3.67;2.80;;;;;10.30;98395.00;;;;5032309;28;20124;-63
2023/12/29 02:22:12;;;;;;;3.50;2.70;;;;;10.30;98403.00;;;;5031346;28;20057;-63
2023/12/29 02:24:39;;;;;;;2.97;2.55;;;;;10.30;98390.00;;;;5030389;28;20087;-64
2023/12/29 02:27:22;;;;;;;5.15;2.50;;;;;10.30;98392.00;;;;5032109;28;20061;-63
2023/12/29 02:30:15;;;;;;;5.18;2.63;;;;;10.30;98394.00;;;;5014589;28;20056;-64
2023/12/29 02:32:44;;;;;;;4.88;2.17;;;;;10.30;98386.00;;;;5031156;28;20084;-63
2023/12/29 02:35:14;;;;;;;2.63;2.00;;;;;10.40;98386.00;;;;5031237;28;20507;-64
2023/12/29 02:37:42;;;;;;;3.70;2.30;;;;;10.30;98396.00;;;;5039036;28;20067;-64
2023/12/29 02:40:09;;;;;;;3.33;2.40;;;;;10.40;98382.00;;;;5040891;28;20041;-64
2023/12/29 02:42:36;;;;;;;3.28;2.53;;;;;10.40;98381.00;;;;5042456;28;20037;-65
2023/12/29 02:45:03;;;;;;;2.30;2.10;;;;;10.40;98386.00;;;;5040117;28;20044;-64
2023/12/29 02:47:30;;;;;;;3.72;2.15;;;;;10.50;98391.00;;;;5042114;28;20538;-65
2023/12/29 02:49:57;;;;;;;2.88;2.28;;;;;10.50;98386.00;;;;5040757;28;20041;-63
2023/12/29 02:52:24;;;;;;;6.13;2.80;;;;;10.50;98385.00;;;;5040572;28;20033;-64
2023/12/29 02:54:50;;;;;;;4.53;2.47;;;;;10.50;98380.00;;;;5041297;28;20036;-64
2023/12/29 02:57:17;;;;;;;2.55;2.35;;;;;10.50;98375.00;;;;5030577;28;20071;-65
2023/12/29 02:59:43;;;;;;;3.33;2.33;;;;;10.50;98382.00;;;;5031895;28;20046;-63
2023/12/29 03:02:10;;;;;;;3.40;2.80;;;;;10.50;98377.00;;;;5030718;28;20127;-64
2023/12/29 03:04:37;;;;;;;3.03;2.55;;;;;10.50;98374.00;;;;5034405;28;20132;-64
2023/12/29 03:07:03;;;;;;;3.80;2.45;;;;;10.60;98383.00;;;;5045623;28;20406;-64
2023/12/29 03:09:30;;;;;;;4.18;2.63;;;;;10.60;98372.00;;;;5050524;28;20037;-64
2023/12/29 03:11:57;;;;;;;4.53;2.67;;;;;10.60;98380.00;;;;5051831;28;20140;-64
2023/12/29 03:14:23;;;;;;;4.32;2.80;;;;;10.50;98378.00;;;;5050001;28;20135;-65
2023/12/29 03:16:50;;;;;;;6.85;3.30;;;;;10.50;98379.00;;;;5052208;28;20045;-63
2023/12/29 03:19:16;;;;;;;4.07;2.90;;;;;10.50;98378.00;;;;5054412;28;20047;-64
2023/12/29 03:21:43;;;;;;;4.03;3.20;;;;;10.50;98376.00;;;;5055573;28;20115;-64
2023/12/29 03:24:10;;;;;;;6.07;3.08;;;;;10.50;98380.00;;;;5053727;28;20060;-65
2023/12/29 03:26:36;;;;;;;5.65;2.92;;;;;10.50;98377.00;;;;5054131;28;20051;-64
2023/12/29 03:29:04;;;;;;;5.10;3.17;;;;;10.60;98383.00;;;;5054445;28;20155;-64
2023/12/29 03:31:31;;;;;;;5.03;2.92;;;;;10.50;98381.00;;;;5054342;28;20045;-64
2023/12/29 03:33:57;;;;;;;4.05;3.10;;;;;10.50;98369.00;;;;5054877;28;20413;-65
2023/12/29 03:36:24;;;;;;;5.88;3.40;;;;;10.50;98369.00;;;;5055414;28;20041;-65
2023/12/29 03:38:50;;;;;;;9.00;3.47;;;;;10.40;98376.00;;;;5056785;28;20041;-65
2023/12/29 03:41:17;;;;;;;4.65;2.92;;;;;10.40;98378.00;;;;5057462;28;20080;-64
2023/12/29 03:43:43;;;;;;;5.40;2.70;;;;;10.40;98380.00;;;;5056364;28;20049;-65
2023/12/29 03:46:21;;;;;;;5.57;3.00;;;;;10.40;98365.00;;;;5056828;28;20051;-65
2023/12/29 03:48:48;;;;;;;3.88;2.63;;;;;10.40;98376.00;;;;5057035;28;20048;-65
2023/12/29 03:51:16;;;;;;;5.35;3.55;;;;;10.40;98370.00;;;;5056007;28;20048;-64
2023/12/29 03:53:43;;;;;;;3.60;2.60;;;;;10.30;98359.00;;;;5056249;28;20049;-65
2023/12/29 03:56:19;;;;;;;4.03;3.10;;;;;10.30;98359.00;;;;5055849;28;20053;-65
2023/12/29 03:58:46;;;;;;;3.83;2.67;;;;;10.30;98365.00;;;;5055588;28;20529;-65
2023/12/29 04:01:16;;;;;;;4.82;3.15;;;;;10.30;98368.00;;;;5055567;28;20045;-65
2023/12/29 04:03:43;;;;;;;3.55;2.83;;;;;10.30;98351.00;;;;5056129;28;20053;-65
2023/12/29 04:06:12;;;;;;;4.07;3.03;;;;;10.30;98346.00;;;;5056400;28;20037;-63
2023/12/29 04:08:38;;;;;;;7.03;2.72;;;;;10.30;98335.00;;;;5056768;28;20029;-64
2023/12/29 04:11:05;;;;;;;5.10;2.65;;;;;10.30;98337.00;;;;5054235;28;20049;-64
2023/12/29 04:13:32;;;;;;;3.55;2.97;;;;;10.30;98339.00;;;;5054215;28;20049;-64
2023/12/29 04:15:59;;;;;;;3.15;2.50;;;;;10.30;98351.00;;;;5054583;28;20098;-65
2023/12/29 04:18:28;;;;;;;4.18;2.67;;;;;10.40;98345.00;;;;5054528;28;20136;-65
2023/12/29 04:20:55;;;;;;;3.80;2.80;;;;;10.40;98352.00;;;;5054303;28;20041;-65
2023/12/29 04:23:22;;;;;;;2.88;2.45;;;;;10.40;98354.00;;;;5036842;28;20544;-61
2023/12/29 04:25:50;;;;;;;3.42;2.67;;;;;10.40;98351.00;;;;5054809;28;20494;-64
2023/12/29 04:28:16;;;;;;;4.28;2.63;;;;;10.40;98351.00;;;;5053297;28;20045;-64
2023/12/29 04:30:43;;;;;;;4.38;3.10;;;;;10.50;98360.00;;;;5053627;28;20071;-65
2023/12/29 04:33:10;;;;;;;5.75;2.90;;;;;10.50;98353.00;;;;5054342;28;20375;-64
2023/12/29 04:35:36;;;;;;;4.35;2.80;;;;;10.40;98353.00;;;;5053581;28;20037;-64
2023/12/29 04:38:03;;;;;;;4.10;2.60;;;;;10.40;98354.00;;;;5052966;28;20103;-65
2023/12/29 04:40:29;;;;;;;4.25;2.92;;;;;10.50;98357.00;;;;5054502;28;20036;-64
2023/12/29 04:42:56;;;;;;;5.05;3.00;;;;;10.50;98347.00;;;;5053031;28;20503;-65
2023/12/29 04:45:23;;;;;;;6.55;3.30;;;;;10.50;98341.00;;;;5052783;28;20049;-63
2023/12/29 04:47:49;;;;;;;4.90;3.20;;;;;10.50;98357.00;;;;5053948;28;20072;-64
2023/12/29 04:50:16;;;;;;;4.50;3.50;;;;;10.50;98351.00;;;;5054089;28;20106;-65
2023/12/29 04:52:42;;;;;;;4.72;3.08;;;;;10.50;98350.00;;;;5054299;28;20441;-65
2023/12/29 04:55:09;;;;;;;3.53;2.88;;;;;10.50;98350.00;;;;5052297;28;20055;-64
2023/12/29 04:57:36;;;;;;;3.65;3.20;;;;;10.50;98349.00;;;;5053410;28;20048;-65
2023/12/29 05:00:04;;;;;;;4.57;3.13;;;;;10.50;98349.00;;;;5052770;28;20049;-65
2023/12/29 05:02:30;;;;;;;3.40;2.75;;;;;10.50;98342.00;;;;5054115;28;20127;-65
2023/12/29 05:04:57;;;;;;;5.03;3.10;;;;;10.50;98336.00;;;;5053326;28;20490;-65
2023/12/29 05:07:24;;;;;;;2.88;2.58;;;;;10.50;98343.00;;;;5052848;28;20569;-64
2023/12/29 05:09:50;;;;;;;3.20;2.90;;;;;10.50;98334.00;;;;5052815;28;20052;-65
2023/12/29 05:12:17;;;;;;;4.13;2.60;;;;;10.50;98335.00;;;;5052789;28;20048;-65
2023/12/29 05:14:44;;;;;;;3.17;2.50;;;;;10.50;98333.00;;;;5035565;28;20065;-63
2023/12/29 05:17:10;;;;;;;3.33;2.70;;;;;10.50;98342.00;;;;5053956;28;20132;-64
2023/12/29 05:19:37;;;;;;;3.28;2.42;;;;;10.50;98339.00;;;;5053708;28;20128;-64
2023/12/29 05:22:04;;;;;;;2.80;2.40;;;;;10.50;98343.00;;;;5053760;28;20127;-65
2023/12/29 05:24:30;;;;;;;2.80;2.05;;;;;10.50;98343.00;;;;5053225;28;20119;-65
2023/12/29 05:26:57;;;;;;;3.10;2.80;;;;;10.50;98341.00;;;;5053821;28;20482;-64
2023/12/29 05:29:24;;;;;;;3.08;2.55;;;;;10.50;98336.00;;;;5052583;28;20059;-64
2023/12/29 05:31:51;;;;;;;3.00;2.70;;;;;10.50;98338.00;;;;5053583;28;20044;-64
2023/12/29 05:34:17;;;;;;;3.78;3.03;;;;;10.50;98337.00;;;;5051651;28;20049;-65
2023/12/29 05:36:45;;;;;;;3.80;2.63;;;;;10.50;98338.00;;;;5052135;28;20055;-65
2023/12/29 05:39:15;;;;;;;4.68;2.35;;;;;10.50;98345.00;;;;5053451;28;20136;-65
2023/12/29 05:41:41;;;;;;;2.38;2.17;;;;;10.50;98337.00;;;;5051721;28;20383;-65
2023/12/29 05:44:08;;;;;;;3.35;2.25;;;;;10.50;98335.00;;;;5052437;28;20045;-65
2023/12/29 05:46:35;;;;;;;5.22;2.22;;;;;10.50;98347.00;;;;5052952;28;20132;-63
2023/12/29 05:49:01;;;;;;;4.35;2.78;;;;;10.50;98338.00;;;;5052898;28;20045;-64
2023/12/29 05:51:28;;;;;;;4.18;2.53;;;;;10.50;98344.00;;;;5053016;28;20049;-65
2023/12/29 05:53:55;;;;;;;2.55;2.00;;;;;10.50;98346.00;;;;5051049;28;20052;-65
2023/12/29 05:56:21;;;;;;;3.83;2.30;;;;;10.50;98348.00;;;;5052747;28;20037;-64
2023/12/29 05:58:50;;;;;;;2.80;2.35;;;;;10.50;98352.00;;;;5052955;28;20478;-65
2023/12/29 06:01:17;;;;;;;3.17;2.10;;;;;10.50;98348.00;;;;5052598;28;20116;-65
2023/12/29 06:03:43;;;;;;;3.00;2.25;;;;;10.50;98355.00;;;;5050725;28;20490;-64
2023/12/29 06:06:10;;;;;;;5.25;2.50;;;;;10.50;98353.00;;;;5052569;28;20110;-65
2023/12/29 06:08:36;;;;;;;4.90;2.45;;;;;10.60;98352.00;;;;5051174;28;20071;-65
2023/12/29 06:11:03;;;;;;;4.35;2.47;;;;;10.50;98342.00;;;;5052413;28;20128;-65
2023/12/29 06:13:30;;;;;;;2.35;2.00;;;;;10.50;98343.00;;;;5051098;28;20490;-64
2023/12/29 06:15:56;;;;;;;2.15;1.90;;;;;10.50;98349.00;;;;5052846;28;20048;-65
2023/12/29 06:18:24;;;;;;;2.25;1.80;;;;;10.50;98347.00;;;;5052711;28;20095;-65
2023/12/29 06:20:51;;;;;;;4.72;2.53;;;;;10.50;98344.00;;;;5052386;28;20037;-64
2023/12/29 06:23:18;;;;;;;2.67;2.10;;;;;10.50;98347.00;;;;5052355;28;20040;-64
2023/12/29 06:25:44;;;;;;;4.07;2.08;;;;;10.50;98344.00;;;;5050587;28;20155;-64
2023/12/29 06:28:11;;;;;;;3.60;2.17;;;;;10.50;98346.00;;;;5051224;28;20045;-65
2023/12/29 06:30:38;;;;;;;2.83;2.20;;;;;10.50;98342.00;;;;5051039;28;20037;-65
2023/12/29 06:33:04;;;;;;;3.92;2.05;;;;;10.50;98346.00;;;;5052204;28;20127;-64
2023/12/29 06:35:31;;;;;;;2.45;2.08;;;;;10.50;98347.00;;;;5051775;28;20037;-65
2023/12/29 06:37:58;;;;;;;3.58;2.17;;;;;10.50;98354.00;;;;5052191;28;20048;-65
2023/12/29 06:40:25;;;;;;;4.30;2.05;;;;;10.50;98348.00;;;;5034214;28;20049;-65
2023/12/29 06:42:52;;;;;;;3.97;2.20;;;;;10.50;98343.00;;;;5050790;28;20053;-64
2023/12/29 06:45:19;;;;;;;2.20;1.80;;;;;10.50;98355.00;;;;5050248;28;20409;-64
2023/12/29 06:47:45;;;;;;;2.95;2.08;;;;;10.40;98352.00;;;;5051852;28;20428;-64
2023/12/29 06:50:12;;;;;;;3.15;2.20;;;;;10.40;98356.00;;;;5052080;28;20064;-65
2023/12/29 06:52:40;;;;;;;4.22;1.90;;;;;10.50;98340.00;;;;5052240;28;20049;-65
2023/12/29 06:55:07;;;;;;;3.78;2.60;;;;;10.50;98351.00;;;;5057921;28;20045;-65
2023/12/29 06:57:34;;;;;;;4.88;2.30;;;;;10.50;98344.00;;;;5058464;28;20045;-65
2023/12/29 07:00:01;;;;;;;2.60;2.13;;;;;10.50;98351.00;;;;5058661;28;20037;-63
2023/12/29 07:02:28;;;;;;;5.15;2.17;;;;;10.60;98342.00;;;;5057275;28;20073;-64
2023/12/29 07:04:54;;;;;;;3.97;1.67;;;;;10.50;98336.00;;;;5057951;28;20049;-64
2023/12/29 07:07:21;;;;;;;4.97;2.03;;;;;10.50;98353.00;;;;5058462;28;20123;-64
2023/12/29 07:09:48;;;;;;;2.13;1.92;;;;;10.50;98348.00;;;;5058468;28;20116;-65
2023/12/29 07:12:15;;;;;;;3.05;1.50;;;;;10.50;98345.00;;;;5058686;28;20107;-65
2023/12/29 07:14:42;;;;;;;4.53;2.00;;;;;10.50;98347.00;;;;5057943;28;20094;-64
2023/12/29 07:17:09;;;;;;;3.15;1.65;;;;;10.40;98336.00;;;;5058572;28;20044;-65
2023/12/29 07:19:38;;;;;;;3.05;1.60;;;;;10.40;98340.00;;;;5059141;28;20502;-64
2023/12/29 07:22:06;;;;;;;3.80;1.50;;;;;10.40;98335.00;;;;5058679;28;20048;-65
2023/12/29 07:24:35;;;;;;;3.20;1.45;;;;;10.50;98335.00;;;;5058021;28;20092;-65
2023/12/29 07:27:02;;;;;;;3.28;1.83;;;;;10.50;98336.00;;;;5058703;28;20056;-65
2023/12/29 07:29:29;;;;;;;3.70;2.00;;;;;10.40;98335.00;;;;5058435;28;20068;-65
2023/12/29 07:31:55;;;;;;;4.38;1.70;;;;;10.50;98343.00;;;;5058472;28;20084;-65
2023/12/29 07:34:22;;;;;;;4.47;1.80;;;;;10.50;98346.00;;;;5056478;28;20504;-65
2023/12/29 07:36:49;;;;;;;4.32;1.90;;;;;10.50;98338.00;;;;5058342;28;20045;-64
2023/12/29 07:39:15;;;;;;;5.72;1.92;;;;;10.50;98335.00;;;;5057168;28;20041;-64
2023/12/29 07:41:42;;;;;;;2.00;1.70;;;;;10.50;98348.00;;;;5058313;28;20044;-64
2023/12/29 07:44:12;;;;;;;2.72;2.22;;;;;10.50;98340.00;;;;5057898;28;20123;-64
2023/12/29 07:46:40;;;;;;;3.00;1.92;;;;;10.50;98343.00;;;;5058252;28;20498;-65
2023/12/29 07:49:07;;;;;;;2.83;2.00;;;;;10.50;98335.00;;;;5058127;28;20095;-64
2023/12/29 07:51:34;;;;;;;2.55;1.95;;;;;10.60;98352.00;;;;5040864;28;20143;-64
2023/12/29 07:54:01;;;;;;;2.90;2.10;;;;;10.50;98350.00;;;;5057764;28;20065;-64
2023/12/29 07:56:28;;;;;;;2.83;1.70;;;;;10.50;98353.00;;;;5056997;28;20045;-64
2023/12/29 07:58:54;;;;;;;4.10;1.92;;;;;10.60;98357.00;;;;5058042;28;20140;-65
2023/12/29 08:01:21;;;;;;;5.90;2.03;;;;;10.60;98357.00;;;;5057894;28;20067;-65
2023/12/29 08:03:48;;;;;;;4.85;1.77;;;;;10.60;98351.00;;;;5057099;28;20067;-64
2023/12/29 08:06:15;;;;;;;3.80;2.05;;;;;10.60;98361.00;;;;5053405;28;20045;-65
2023/12/29 08:08:42;;;;;;;4.22;2.20;;;;;10.70;98356.00;;;;5054916;28;20045;-63
2023/12/29 08:11:16;;;;;;;4.00;2.28;;;;;10.70;98367.00;;;;5054895;28;20033;-64
2023/12/29 08:13:47;;;;;;;;;;;;;10.80;98357.00;;;;5053688;28;20049;-64
2023/12/29 08:16:13;;;;;;;1.90;1.77;;;;;10.70;98355.00;;;;5053595;28;20625;-64
2023/12/29 08:18:40;;;;;;;2.35;2.05;;;;;10.70;98358.00;;;;5054701;28;20048;-64
2023/12/29 08:21:07;;;;;;;3.10;2.25;;;;;10.80;98362.00;;;;5054426;28;20041;-64
2023/12/29 08:23:34;;;;;;;4.28;2.35;;;;;10.80;98353.00;;;;5053182;28;20140;-64
2023/12/29 08:26:02;;;;;;;3.80;2.38;;;;;10.80;98349.00;;;;5054689;28;20040;-64
2023/12/29 08:28:29;;;;;;;2.50;2.20;;;;;10.80;98354.00;;;;5053048;28;20564;-64
2023/12/29 08:30:56;;;;;;;5.32;2.80;;;;;10.90;98366.00;;;;5054382;28;20090;-64
2023/12/29 08:33:23;;;;;;;4.85;1.90;;;;;10.90;98361.00;;;;5054066;28;20056;-64
2023/12/29 08:35:49;;;;;;;2.67;2.00;;;;;10.90;98363.00;;;;5054430;28;20043;-64
2023/12/29 08:38:16;;;;;;;4.38;2.15;;;;;10.90;98367.00;;;;5054147;28;20037;-65
2023/12/29 08:40:42;;;;;;;4.07;2.00;;;;;10.90;98363.00;;;;5052845;28;20045;-62
2023/12/29 08:43:09;;;;;;;5.28;1.98;;;;;11.00;98358.00;;;;5054040;28;20041;-64
2023/12/29 08:45:36;;;;;;;1.80;1.70;;;;;10.90;98363.00;;;;5052283;28;20045;-65
2023/12/29 08:48:03;;;;;;;3.45;1.95;;;;;10.90;98355.00;;;;5053996;28;20048;-64
2023/12/29 08:50:30;;;;;;;2.95;2.00;;;;;10.90;98364.00;;;;5048311;28;20039;-65
2023/12/29 08:52:57;;;;;;;5.00;2.42;;;;;10.90;98364.00;;;;5044632;28;20135;-64
2023/12/29 08:55:23;;;;;;;2.05;1.73;;;;;11.00;98363.00;;;;5042474;28;20111;-64
2023/12/29 08:57:50;;;;;;;2.67;1.88;;;;;11.00;98368.00;;;;5042991;28;20045;-65
2023/12/29 09:00:17;;;;;;;3.28;1.75;;;;;11.00;98363.00;;;;5043317;28;20037;-65
2023/12/29 09:02:44;;;;;;;2.30;2.05;;;;;11.10;98365.00;;;;5043030;28;20120;-64
2023/12/29 09:05:11;;;;;;;3.58;2.03;;;;;11.10;98365.00;;;;5042343;28;20037;-64
2023/12/29 09:07:38;;;;;;;3.55;1.95;;;;;11.10;98369.00;;;;5036272;28;20437;-64
2023/12/29 09:10:08;;;;;;;3.35;1.90;;;;;11.10;98369.00;;;;5041695;28;20046;-64
2023/12/29 09:12:35;;;;;;;2.92;1.90;;;;;11.10;98360.00;;;;5042242;28;20048;-65
2023/12/29 09:15:02;;;;;;;2.05;1.75;;;;;11.10;98370.00;;;;5043126;28;20075;-65
2023/12/29 09:17:29;;;;;;;2.40;1.73;;;;;11.10;98363.00;;;;5043380;28;20038;-65
2023/12/29 09:19:56;;;;;;;3.58;1.70;;;;;11.10;98361.00;;;;5043762;28;20524;-64
2023/12/29 09:22:35;;;;;;;4.47;1.88;;;;;11.20;98369.00;;;;5050851;28;20042;-65
2023/12/29 09:25:02;;;;;;;3.30;1.70;;;;;11.20;98374.00;;;;5041694;28;20045;-65
2023/12/29 09:27:29;;;;;;;4.05;1.70;;;;;11.10;98363.00;;;;5043261;28;20037;-64
2023/12/29 09:29:55;;;;;;;6.10;1.98;;;;;11.20;98368.00;;;;5046268;28;20082;-64
2023/12/29 09:32:22;;;;;;;3.65;1.98;;;;;11.20;98370.00;;;;5048654;28;20034;-64
2023/12/29 09:34:48;;;;;;;1.90;1.60;;;;;11.10;98366.00;;;;5042653;28;20040;-64
2023/12/29 09:37:15;;;;;;;4.43;1.88;;;;;11.20;98371.00;;;;5043552;28;20614;-64
2023/12/29 09:39:42;;;;;;;2.55;1.65;;;;;11.10;98363.00;;;;5041803;28;20452;-65
2023/12/29 09:42:17;;;;;;;2.70;2.20;;;;;11.10;98368.00;;;;5042969;28;20044;-64
2023/12/29 09:44:47;;;;;;;2.15;1.58;;;;;11.10;98368.00;;;;5043206;28;20076;-64
2023/12/29 09:47:16;;;;;;;3.15;1.80;;;;;11.10;98379.00;;;;5041909;28;20175;-65
2023/12/29 09:49:44;;;;;;;2.63;1.67;;;;;11.10;98381.00;;;;5041547;28;20553;-65
2023/12/29 09:52:13;;;;;;;2.25;1.70;;;;;11.10;98369.00;;;;5042623;28;20041;-65
2023/12/29 09:54:40;;;;;;;13.98;10.70;;;;;11.10;98381.00;;;;5042846;28;20052;-65
2023/12/29 09:57:08;;;;;;;3.90;1.85;;;;;11.10;98377.00;;;;5041915;28;20091;-65
2023/12/29 09:59:38;;;;;;;3.05;1.75;;;;;11.10;98386.00;;;;5041734;28;20489;-63
2023/12/29 10:02:04;;;;;;;2.45;2.10;;;;;11.10;98384.00;;;;5040206;28;20045;-66
2023/12/29 10:04:32;;;;;;;2.13;1.60;;;;;11.10;98384.00;;;;5041692;28;20037;-65
2023/12/29 10:07:03;;;;;;;2.20;1.67;;;;;11.10;98379.00;;;;5034142;28;20053;-64
2023/12/29 10:09:33;;;;;;;2.67;1.35;;;;;11.20;98373.00;;;;5032932;28;20499;-65
2023/12/29 10:12:03;;;;;;;2.30;1.55;;;;;11.20;98373.00;;;;5032753;28;20457;-64
2023/12/29 10:14:53;;;;;;;2.97;1.70;;;;;11.30;98372.00;;;;5032187;28;20076;-65
2023/12/29 10:17:42;;;;;;;2.88;1.67;;;;;11.30;98382.00;;;;5029575;28;20063;-65
2023/12/29 10:20:11;;;;;;;2.55;1.50;;;;;11.30;98381.00;;;;5032460;28;20045;-65
2023/12/29 10:22:59;;;;;;;2.83;1.50;;;;;11.30;98371.00;;;;5032630;28;20406;-65
2023/12/29 10:25:27;;;;;;;3.53;1.67;;;;;11.30;98379.00;;;;5032047;28;20049;-64
2023/12/29 10:27:55;;;;;;;4.10;1.70;;;;;11.30;98379.00;;;;5030400;28;20053;-65
2023/12/29 10:30:22;;;;;;;3.00;1.90;;;;;11.40;98376.00;;;;5032701;28;20056;-64
2023/12/29 10:33:00;;;;;;;1.83;1.30;;;;;11.50;98373.00;;;;5032534;28;20046;-64
2023/12/29 10:35:27;;;;;;;2.25;1.35;;;;;11.60;98369.00;;;;5031835;28;20041;-65
2023/12/29 10:37:54;;;;;;;3.65;1.50;;;;;11.60;98378.00;;;;5032253;28;20037;-65
2023/12/29 10:40:21;;;;;;;4.50;1.70;;;;;11.70;98373.00;;;;5032478;28;20392;-64
2023/12/29 10:42:52;;;;;;;3.22;1.75;;;;;11.80;98372.00;;;;5032135;28;20037;-65
2023/12/29 10:45:19;;;;;;;3.42;1.75;;;;;11.90;98367.00;;;;5030545;28;20084;-64
2023/12/29 10:47:46;;;;;;;1.38;1.27;;;;;11.90;98368.00;;;;5030879;28;20048;-65
2023/12/29 10:50:12;;;;;;;1.83;1.45;;;;;11.90;98353.00;;;;5032118;28;20425;-65
2023/12/29 10:52:41;;;;;;;2.80;1.58;;;;;11.90;98362.00;;;;5032076;28;20038;-64
2023/12/29 10:55:10;;;;;;;2.65;1.20;;;;;11.90;98345.00;;;;5030298;28;20092;-65
2023/12/29 10:57:39;;;;;;;3.92;1.17;;;;;11.80;98354.00;;;;5032077;28;20064;-65
2023/12/29 11:00:07;;;;;;;2.13;1.52;;;;;11.80;98352.00;;;;5032119;28;20128;-64
2023/12/29 11:02:35;;;;;;;2.05;1.40;;;;;11.90;98350.00;;;;5031936;28;20042;-64
2023/12/29 11:05:07;;;;;;;1.77;1.60;;;;;11.80;98341.00;;;;5031445;28;20041;-65
2023/12/29 11:07:36;;;;;;;2.70;1.27;;;;;11.80;98347.00;;;;5030559;28;20053;-65
2023/12/29 11:10:04;;;;;;;4.75;1.90;;;;;11.80;98347.00;;;;5031884;28;20042;-65
2023/12/29 11:12:32;;;;;;;4.95;1.45;;;;;11.80;98342.00;;;;5031881;28;20069;-65
2023/12/29 11:15:01;;;;;;;1.30;1.20;;;;;11.80;98344.00;;;;5031279;28;20050;-65
2023/12/29 11:17:29;;;;;;;2.65;1.20;;;;;11.70;98342.00;;;;5031616;28;20057;-65
2023/12/29 11:19:58;;;;;;;2.25;1.20;;;;;11.70;98338.00;;;;5031770;28;20103;-65
2023/12/29 11:22:28;;;;;;;3.35;1.40;;;;;11.70;98345.00;;;;5030447;28;20041;-65
2023/12/29 11:24:54;;;;;;;2.42;1.27;;;;;11.70;98341.00;;;;5029854;28;20069;-65
2023/12/29 11:27:22;;;;;;;2.88;1.50;;;;;11.70;98341.00;;;;5031580;28;20410;-65
2023/12/29 11:29:49;;;;;;;2.13;1.20;;;;;11.70;98343.00;;;;5031587;28;20042;-64
2023/12/29 11:32:21;;;;;;;1.10;1.00;;;;;11.60;98352.00;;;;5032171;28;20038;-65
2023/12/29 11:35:06;;;;;;;2.97;1.50;;;;;11.70;98346.00;;;;5031480;28;20060;-64
2023/12/29 11:37:57;;;;;;;11.25;1.50;;;;;11.70;98343.00;;;;5031813;28;20048;-65
2023/12/29 11:40:30;;;;;;;1.45;1.20;;;;;11.70;98352.00;;;;5034528;28;20505;-64
2023/12/29 11:43:02;;;;;;;1.30;1.00;;;;;11.60;98351.00;;;;5035445;28;20046;-64
2023/12/29 11:45:32;;;;;;;2.20;1.25;;;;;11.50;98350.00;;;;5034998;28;20052;-64
2023/12/29 11:48:02;;;;;;;3.42;1.67;;;;;11.50;98347.00;;;;5035271;28;20061;-62
2023/12/29 11:50:30;;;;;;;2.67;1.50;;;;;11.60;98349.00;;;;5035318;28;20049;-65
2023/12/29 11:52:57;;;;;;;1.92;1.30;;;;;11.60;98349.00;;;;5035143;28;20049;-64
2023/12/29 11:55:30;;;;;;;2.63;1.50;;;;;11.70;98340.00;;;;5034640;28;20602;-65
2023/12/29 11:57:57;;;;;;;4.57;1.70;;;;;11.70;98348.00;;;;5035024;28;20124;-63
2023/12/29 12:00:46;;;;;;;2.63;1.50;;;;;11.70;98333.00;;;;5035192;28;20071;-64
2023/12/29 12:03:21;;;;;;;5.13;2.15;;;;;11.70;98324.00;;;;5034915;28;20438;-62
2023/12/29 12:05:50;;;;;;;1.80;1.60;;;;;11.70;98326.00;;;;5035269;28;20044;-63
2023/12/29 12:08:46;;;;;;;1.60;1.50;;;;;11.70;98319.00;;;;5034712;28;20053;-63
2023/12/29 12:11:37;;;;;;;1.90;1.75;;;;;11.70;98328.00;;;;5030314;28;20073;-62
2023/12/29 12:14:03;;;;;;;2.05;1.42;;;;;11.70;98314.00;;;;5033076;28;20136;-64
2023/12/29 12:16:42;;;;;;;4.03;1.58;;;;;11.70;98317.00;;;;5035036;28;20091;-65
2023/12/29 12:19:09;;;;;;;2.55;1.52;;;;;11.60;98313.00;;;;5033631;28;20053;-63
2023/12/29 12:21:37;;;;;;;3.70;1.48;;;;;11.60;98303.00;;;;5034646;28;20041;-63
2023/12/29 12:24:05;;;;;;;1.60;1.33;;;;;11.60;98308.00;;;;5034090;28;20041;-64